Airfield :
LOGIN :

Register | Disclaimer

   EN    FR    IT 

 










Legend :    VFR   Marginal VFR   IFR   Intensive IFR   Very Intensive IFR
Visi :
Ceiling :
>= 8 km
>= 3000ft
5 to 8 km
1000 to 3000 ft
1500m to 5 km
500 to 1000 ft
800 to 1500m
200 to 500 ft
< 800m
< 200 ft
Symbols :   Thunderstorms  Fog  Heavy snow  Heavy precipitations  Wind > 20 kt
SIGMETs :     Misc.  Thunderstorms  Icing  Turbulence  Mountain Waves  Volcanic Ashes







- Airport Elevation : 257 ft
- IATA code : MAN
- Download approach charts


EGCC - Manchester

CURRENT METAR :
  • 270020Z AUTO 07003KT 9999 NCD 11/09 Q1032 NOSIG

EXPIRED METARs :
  • 262350Z AUTO 13002KT 9999 NCD 10/09 Q1032 NOSIG
  • 262320Z AUTO 06003KT 9999 NCD 11/09 Q1031 NOSIG
  • 262250Z AUTO 08003KT 9999 NCD 12/10 Q1032 NOSIG
  • 262220Z AUTO VRB02KT 9999 BKN013 12/10 Q1032 TEMPO BKN016
  • 262150Z AUTO VRB03KT 9999 OVC013 13/10 Q1032 TEMPO BKN016

TAF AMD TAF EGCC
Valid from the 27 at 00:00 until the 28 at 06:00 UTC


270001Z 2700/2806 10006KT CAVOK
TEMPO 2700/2708 9000
PROB30
TEMPO 2700/2708 BKN013
PROB40
TEMPO 2800/2806 BKN012
ATIS : +44 161 499 2324
No reported NOTAMs for that airfield.
1 SIGMET reported for the London FIR (EGTT) :
 
Severe turbulence
EGTT SIGMET 01 VALID 270010/270400 EGRR
EGTT LONDON FIR SEV TURB FCST WI N5033 W00347 - N4950 W00345 - N4933 W00800 - N5028 W00800 - N5033 W00347 SFC/FL060 STNR WKN=



MET'MAP, your aeronautical weather chart ! - Copyright ORBIFLY December 2007 - Disclaimer

ORBIFLY MET'MAP TEAM :

Programming & Development : Alexandra Zaïnal
Concept & Development : Baudouin d'Aumeries
Co-Development & Prog : Marc-Olivier Méhu
Technical & hardware support : Manuel Goepfert

Contact : metmap@orbifly.com




SOURCES & CREDITS :

   NOAA